Time;durP1;ratioP1;P1;durP2;ratioP2;P2;SDS_P1;SDS_P2;PMS_P1;PMS_P2;Temp;Humidity;BMP_temperature;BMP_pressure;BME280_temperature;BME280_humidity;BME280_pressure;Samples;Min_cycle;Max_cycle;Signal;HPM_P1;HPM_P2
2021/11/21 00:00:26;;;;;;;23.57;10.57;;;;;;;8.50;64.28;100599.47;126294;1099;104214;-82
2021/11/21 00:03:14;;;;;;;22.30;10.97;;;;;;;8.50;65.03;100603.82;126248;1099;104277;-81
2021/11/21 00:05:44;;;;;;;22.67;10.70;;;;;;;8.48;64.42;100602.83;126368;1099;104142;-82
2021/11/21 00:08:13;;;;;;;20.70;10.90;;;;;;;8.45;64.70;100614.06;126293;1099;104924;-82
2021/11/21 00:10:41;;;;;;;20.83;11.63;;;;;;;8.41;64.35;100617.32;126356;1099;104526;-83
2021/11/21 00:13:11;;;;;;;21.57;11.07;;;;;;;8.38;64.95;100612.87;126237;1099;103973;-81
2021/11/21 00:15:41;;;;;;;23.10;11.30;;;;;;;8.37;65.11;100607.56;126354;1099;104239;-82
2021/11/21 00:18:11;;;;;;;21.70;11.17;;;;;;;8.35;64.78;100610.11;126375;1099;104631;-82
2021/11/21 00:20:41;;;;;;;22.90;10.27;;;;;;;8.34;64.75;100617.88;126337;1099;104120;-81
2021/11/21 00:23:10;;;;;;;19.13;9.53;;;;;;;8.32;64.84;100614.28;126216;1099;104245;-83
2021/11/21 00:25:39;;;;;;;19.43;9.47;;;;;;;8.31;65.16;100613.39;126336;1099;104175;-82
2021/11/21 00:28:07;;;;;;;21.13;11.60;;;;;;;8.30;64.57;100629.01;126333;1098;104233;-82
2021/11/21 00:30:36;;;;;;;22.83;11.83;;;;;;;8.27;64.85;100622.83;126355;1099;104147;-82
2021/11/21 00:33:04;;;;;;;22.80;11.93;;;;;;;8.24;65.21;100626.98;126254;1099;104287;-82
2021/11/21 00:35:33;;;;;;;23.47;12.60;;;;;;;8.22;65.02;100620.80;126300;1099;104293;-82
2021/11/21 00:38:02;;;;;;;25.00;12.33;;;;;;;8.17;65.01;100620.59;126344;1099;104150;-82
2021/11/21 00:40:30;;;;;;;25.03;12.70;;;;;;;8.10;65.16;100621.11;126265;1099;104223;-82
2021/11/21 00:42:58;;;;;;;24.43;13.80;;;;;;;8.06;65.13;100619.19;126280;1099;104179;-81
2021/11/21 00:45:27;;;;;;;26.20;13.83;;;;;;;8.01;65.28;100618.97;126226;1099;104300;-82
2021/11/21 00:47:56;;;;;;;25.57;13.53;;;;;;;7.94;64.66;100621.22;126302;1099;104248;-82
2021/11/21 00:50:27;;;;;;;27.00;13.13;;;;;;;7.86;64.78;100620.84;126315;1099;104293;-82
2021/11/21 00:53:00;;;;;;;26.50;13.20;;;;;;;7.83;64.80;100608.52;126317;1099;104150;-83
2021/11/21 00:55:35;;;;;;;24.00;11.73;;;;;;;7.82;65.39;100604.13;126276;1099;104277;-82
2021/11/21 00:58:05;;;;;;;24.23;10.80;;;;;;;7.84;65.21;100612.05;126371;1099;104144;-82
2021/11/21 01:00:34;;;;;;;21.47;10.37;;;;;;;7.85;65.23;100616.42;126302;1099;104274;-81
2021/11/21 01:03:03;;;;;;;21.63;11.10;;;;;;;7.80;65.64;100618.81;126348;1099;104188;-81
2021/11/21 01:05:31;;;;;;;26.27;12.87;;;;;;;7.79;65.09;100606.59;126264;1099;104322;-82
2021/11/21 01:07:59;;;;;;;25.60;13.10;;;;;;;7.77;65.38;100608.22;126388;1098;104143;-80
2021/11/21 01:10:27;;;;;;;23.70;12.73;;;;;;;7.74;65.68;100613.29;126307;1099;104261;-80
2021/11/21 01:12:55;;;;;;;24.57;13.13;;;;;;;7.68;65.35;100608.69;126277;1099;104201;-80
2021/11/21 01:15:25;;;;;;;24.30;13.20;;;;;;;7.63;65.32;100609.27;126291;1099;104144;-81
2021/11/21 01:17:55;;;;;;;23.17;12.77;;;;;;;7.60;65.26;100617.83;126275;1099;104156;-81
2021/11/21 01:20:25;;;;;;;24.00;12.57;;;;;;;7.56;65.31;100616.80;126368;1099;104155;-83
2021/11/21 01:22:57;;;;;;;24.70;13.10;;;;;;;7.53;65.80;100611.42;126293;1099;104291;-81
2021/11/21 01:25:33;;;;;;;23.30;11.80;;;;;;;7.54;65.35;100609.70;126247;1099;104153;-81
2021/11/21 01:28:02;;;;;;;25.70;12.63;;;;;;;7.55;65.59;100608.89;126309;1099;104586;-81
2021/11/21 01:30:31;;;;;;;26.23;11.40;;;;;;;7.57;65.84;100602.02;126315;1099;104274;-81
2021/11/21 01:33:01;;;;;;;24.60;12.50;;;;;;;7.57;65.34;100607.23;126302;1099;104264;-81
2021/11/21 01:35:30;;;;;;;22.37;12.53;;;;;;;7.58;65.62;100606.43;126284;1099;104245;-81
2021/11/21 01:38:02;;;;;;;24.47;12.30;;;;;;;7.55;65.65;100606.27;126320;1099;104146;-81
2021/11/21 01:40:30;;;;;;;24.83;12.77;;;;;;;7.54;65.79;100600.17;126274;1099;104200;-82
2021/11/21 01:43:01;;;;;;;23.93;12.13;;;;;;;7.51;65.77;100597.41;126308;1099;104239;-82
2021/11/21 01:45:31;;;;;;;22.43;12.13;;;;;;;7.50;65.95;100595.60;126311;1099;104141;-82
2021/11/21 01:48:00;;;;;;;23.20;11.50;;;;;;;7.42;65.91;100596.95;126330;1098;104284;-82
2021/11/21 01:50:31;;;;;;;25.47;13.37;;;;;;;7.40;66.11;100602.90;126273;1099;104160;-82
2021/11/21 01:53:00;;;;;;;24.40;13.40;;;;;;;7.37;65.58;100603.66;126379;1099;104232;-82
2021/11/21 01:55:47;;;;;;;23.43;12.17;;;;;;;7.35;66.10;100602.67;126270;1099;104156;-81
2021/11/21 01:58:17;;;;;;;23.13;11.83;;;;;;;7.36;66.28;100596.64;126289;1099;104181;-82
2021/11/21 02:00:47;;;;;;;25.30;11.47;;;;;;;7.36;66.06;100588.80;126338;1099;104336;-82
2021/11/21 02:03:19;;;;;;;21.43;10.90;;;;;;;7.36;65.89;100594.03;126288;1099;104283;-82
2021/11/21 02:05:47;;;;;;;22.10;12.33;;;;;;;7.35;65.79;100595.75;126240;1099;104268;-82
2021/11/21 02:08:16;;;;;;;22.07;11.77;;;;;;;7.33;66.09;100602.59;126336;1099;104153;-80
2021/11/21 02:11:16;;;;;;;24.23;13.17;;;;;;;7.28;65.81;100601.47;126293;1099;104198;-81
2021/11/21 02:13:47;;;;;;;28.10;13.73;;;;;;;7.21;65.91;100596.75;126313;1099;104159;-81
2021/11/21 02:16:16;;;;;;;29.77;17.43;;;;;;;7.17;66.08;100605.27;126279;1099;104265;-81
2021/11/21 02:18:45;;;;;;;32.03;16.83;;;;;;;7.14;66.03;100602.49;126333;1099;104158;-83
2021/11/21 02:21:15;;;;;;;31.03;17.00;;;;;;;7.11;66.39;100598.00;126294;1099;104146;-81
2021/11/21 02:23:43;;;;;;;29.30;15.60;;;;;;;7.08;66.32;100600.45;126308;1099;104156;-83
2021/11/21 02:26:13;;;;;;;26.53;14.90;;;;;;;7.08;66.34;100602.18;126342;1099;102672;-83
2021/11/21 02:28:42;;;;;;;27.27;13.67;;;;;;;7.07;66.64;100590.82;126270;1097;104136;-82
2021/11/21 02:31:11;;;;;;;24.67;12.57;;;;;;;7.09;66.44;100591.82;126333;1099;104648;-82
2021/11/21 02:33:40;;;;;;;26.17;13.23;;;;;;;7.13;66.48;100585.03;126330;1099;104200;-83
2021/11/21 02:36:09;;;;;;;25.67;13.10;;;;;;;7.12;66.56;100578.93;126359;1099;104213;-82
2021/11/21 02:38:38;;;;;;;26.10;14.53;;;;;;;7.14;66.19;100577.28;126237;1099;104299;-82
2021/11/21 02:41:08;;;;;;;26.70;15.10;;;;;;;7.08;66.67;100576.97;126301;1099;104252;-83
2021/11/21 02:43:37;;;;;;;30.97;16.93;;;;;;;7.02;66.77;100569.71;126347;1098;104340;-82
2021/11/21 02:46:11;;;;;;;31.37;17.13;;;;;;;6.95;66.79;100564.10;126296;1099;104321;-82
2021/11/21 02:48:43;;;;;;;33.50;17.83;;;;;;;6.84;66.78;100560.97;126373;1099;104201;-82
2021/11/21 02:51:16;;;;;;;32.57;17.80;;;;;;;6.73;66.58;100556.89;126337;1099;104162;-81
2021/11/21 02:53:49;;;;;;;31.43;17.07;;;;;;;6.64;66.42;100555.60;126281;1099;104300;-81
2021/11/21 02:56:24;;;;;;;31.03;16.47;;;;;;;6.58;66.58;100557.89;126276;1099;104144;-81
2021/11/21 02:58:57;;;;;;;30.70;16.67;;;;;;;6.57;66.63;100563.91;126339;1099;104209;-81
2021/11/21 03:01:28;;;;;;;32.80;17.17;;;;;;;6.57;66.72;100557.81;126325;1099;104268;-81
2021/11/21 03:03:56;;;;;;;31.10;17.23;;;;;;;6.59;66.75;100563.98;126305;1099;104185;-82
2021/11/21 03:06:28;;;;;;;35.93;17.47;;;;;;;6.60;66.75;100566.67;126308;1099;104149;-82
2021/11/21 03:08:56;;;;;;;28.57;17.03;;;;;;;6.62;66.75;100572.89;126305;1099;104265;-83
2021/11/21 03:11:32;;;;;;;30.03;16.83;;;;;;;6.62;67.18;100569.37;126351;1099;104156;-82
2021/11/21 03:14:01;;;;;;;33.17;16.43;;;;;;;6.60;66.74;100556.25;126347;1099;104155;-82
2021/11/21 03:16:30;;;;;;;32.87;16.50;;;;;;;6.58;66.97;100557.89;126346;1099;104165;-83
2021/11/21 03:18:58;;;;;;;31.10;16.33;;;;;;;6.58;66.88;100536.14;126236;1099;104309;-83
2021/11/21 03:21:26;;;;;;;29.07;15.57;;;;;;;6.55;66.97;100536.87;126353;1098;104185;-82
2021/11/21 03:23:54;;;;;;;31.90;16.70;;;;;;;6.50;66.81;100529.61;126338;1099;104155;-81
2021/11/21 03:26:22;;;;;;;29.97;16.73;;;;;;;6.45;66.75;100532.89;126397;1099;104133;-82
2021/11/21 03:28:50;;;;;;;31.57;17.10;;;;;;;6.39;67.23;100536.86;126302;1099;104144;-82
2021/11/21 03:31:18;;;;;;;33.87;18.97;;;;;;;6.41;67.09;100533.53;126352;1099;104277;-83
2021/11/21 03:33:47;;;;;;;33.75;18.95;;;;;;;6.44;67.21;100536.30;126348;1099;101747;-82
2021/11/21 03:36:16;;;;;;;34.50;19.23;;;;;;;6.47;67.01;100543.41;126312;1099;104692;-82
2021/11/21 03:38:44;;;;;;;31.37;18.30;;;;;;;6.47;66.93;100543.41;126298;1099;104334;-82
2021/11/21 03:41:12;;;;;;;33.97;18.53;;;;;;;6.47;67.46;100544.28;126347;1099;104188;-82
2021/11/21 03:43:40;;;;;;;31.33;18.50;;;;;;;6.45;67.09;100532.89;126306;1099;104152;-82
2021/11/21 03:46:08;;;;;;;33.35;18.85;;;;;;;6.42;67.27;100522.30;126355;1099;104181;-81
2021/11/21 03:48:36;;;;;;;32.87;17.20;;;;;;;6.39;66.99;100529.96;126297;1099;104319;-82
2021/11/21 03:51:04;;;;;;;33.47;18.23;;;;;;;6.32;67.26;100534.77;126352;1099;104275;-82
2021/11/21 03:53:32;;;;;;;33.67;18.13;;;;;;;6.27;67.18;100539.73;126335;1099;104203;-82
2021/11/21 03:56:00;;;;;;;31.60;17.57;;;;;;;6.26;67.19;100528.42;126331;1099;104252;-82
2021/11/21 03:58:28;;;;;;;31.57;17.10;;;;;;;6.29;67.42;100532.88;126077;1098;104153;-82
2021/11/21 04:00:59;;;;;;;33.53;17.80;;;;;;;6.31;67.46;100536.48;126216;1099;104216;-81
2021/11/21 04:03:27;;;;;;;35.90;18.20;;;;;;;6.33;67.60;100540.06;126358;1099;104150;-82
2021/11/21 04:05:55;;;;;;;31.03;18.43;;;;;;;6.36;67.60;100550.65;126326;1099;104389;-82
2021/11/21 04:08:23;;;;;;;30.57;17.63;;;;;;;6.34;67.72;100541.83;126254;1099;104293;-81
2021/11/21 04:10:51;;;;;;;31.07;18.27;;;;;;;6.35;67.45;100543.63;126315;1099;104777;-82
2021/11/21 04:13:23;;;;;;;32.27;17.47;;;;;;;6.31;67.58;100541.70;126282;1099;104290;-82
2021/11/21 04:15:51;;;;;;;35.80;18.85;;;;;;;6.29;67.39;100548.52;126348;1099;104225;-81
2021/11/21 04:18:20;;;;;;;34.07;18.27;;;;;;;6.26;67.37;100548.35;126322;1099;104370;-81
2021/11/21 04:20:48;;;;;;;33.43;17.50;;;;;;;6.22;67.57;100547.30;126243;1099;104140;-82
2021/11/21 04:23:17;;;;;;;32.67;18.23;;;;;;;6.16;67.53;100551.30;126285;1099;104178;-81
2021/11/21 04:25:45;;;;;;;36.57;18.47;;;;;;;6.16;67.49;100553.91;126310;1099;104276;-81
2021/11/21 04:28:13;;;;;;;34.50;17.00;;;;;;;6.17;67.51;100553.06;126369;1099;104162;-81
2021/11/21 04:30:41;;;;;;;34.17;18.33;;;;;;;6.20;67.91;100548.94;126305;1099;104140;-82
2021/11/21 04:33:10;;;;;;;37.20;19.27;;;;;;;6.21;67.72;100553.31;126334;1097;104210;-82
2021/11/21 04:35:38;;;;;;;36.73;18.60;;;;;;;6.24;67.59;100555.20;126277;1099;104185;-82
2021/11/21 04:38:06;;;;;;;34.63;18.77;;;;;;;6.26;67.67;100548.35;126349;1099;104150;-80
2021/11/21 04:40:34;;;;;;;36.60;19.70;;;;;;;6.24;67.98;100540.45;126287;1099;104222;-82
2021/11/21 04:43:02;;;;;;;33.70;19.23;;;;;;;6.22;67.63;100544.70;126336;1099;104147;-81
2021/11/21 04:45:30;;;;;;;36.33;18.67;;;;;;;6.16;68.01;100548.69;126303;1099;104277;-82
2021/11/21 04:47:58;;;;;;;36.60;18.33;;;;;;;6.05;67.93;100545.50;126333;1099;102777;-82
2021/11/21 04:50:26;;;;;;;36.57;18.23;;;;;;;6.02;67.92;100548.82;126260;1099;104153;-82
2021/11/21 04:52:54;;;;;;;32.57;16.97;;;;;;;5.98;67.72;100546.85;126335;1099;104143;-82
2021/11/21 04:55:23;;;;;;;30.33;16.17;;;;;;;5.97;67.67;100545.08;126337;1098;104281;-82
2021/11/21 04:57:54;;;;;;;32.10;17.67;;;;;;;5.87;67.85;100546.22;126274;1099;104147;-81
2021/11/21 05:00:22;;;;;;;33.37;17.80;;;;;;;5.78;68.06;100543.14;126312;1099;105473;-83
2021/11/21 05:02:52;;;;;;;32.47;17.67;;;;;;;5.79;67.89;100536.22;126285;1099;104399;-82
2021/11/21 05:05:23;;;;;;;32.87;18.23;;;;;;;5.80;67.71;100549.32;126366;1099;104162;-82
2021/11/21 05:07:52;;;;;;;35.53;18.63;;;;;;;5.82;68.22;100552.02;126248;1099;104162;-82
2021/11/21 05:10:22;;;;;;;31.63;17.37;;;;;;;5.82;67.85;100541.59;126226;1099;104210;-80
2021/11/21 05:12:51;;;;;;;37.60;18.63;;;;;;;5.81;68.19;100542.39;126318;1099;104137;-82
2021/11/21 05:15:22;;;;;;;30.77;17.07;;;;;;;5.82;67.97;100538.98;126325;1099;104184;-82
2021/11/21 05:17:50;;;;;;;34.03;17.30;;;;;;;5.85;68.08;100540.05;126265;1099;104175;-81
2021/11/21 05:20:19;;;;;;;32.03;15.90;;;;;;;5.89;68.13;100530.69;126292;1099;104245;-81
2021/11/21 05:22:48;;;;;;;31.03;15.87;;;;;;;5.96;68.15;100527.61;126252;1099;104255;-82
2021/11/21 05:25:17;;;;;;;31.13;16.53;;;;;;;6.00;68.14;100519.20;126324;1099;104169;-82
2021/11/21 05:27:47;;;;;;;29.80;17.17;;;;;;;6.03;68.31;100519.37;126347;1099;104281;-82
2021/11/21 05:30:18;;;;;;;29.73;16.33;;;;;;;6.05;68.01;100520.34;126265;1099;104156;-81
2021/11/21 05:32:48;;;;;;;31.73;17.27;;;;;;;6.08;68.23;100524.83;126289;1099;104245;-81
2021/11/21 05:35:17;;;;;;;29.93;17.17;;;;;;;6.04;68.06;100515.05;126328;1099;104176;-81
2021/11/21 05:37:46;;;;;;;32.73;16.60;;;;;;;6.02;68.22;100514.95;126271;1099;104191;-81
2021/11/21 05:40:16;;;;;;;32.27;17.27;;;;;;;5.99;68.23;100519.12;126314;1099;104158;-81
2021/11/21 05:42:45;;;;;;;31.00;15.87;;;;;;;6.01;68.34;100510.55;126307;1099;104731;-81
2021/11/21 05:45:14;;;;;;;32.80;17.10;;;;;;;6.04;68.19;100517.64;126134;1099;104152;-82
2021/11/21 05:47:42;;;;;;;30.30;16.30;;;;;;;6.11;68.18;100509.36;126307;1099;104293;-82
2021/11/21 05:50:14;;;;;;;31.30;17.13;;;;;;;6.16;68.19;100507.00;126305;1099;104143;-81
2021/11/21 05:52:44;;;;;;;33.27;18.63;;;;;;;6.17;68.49;100514.90;126236;1099;104141;-82
2021/11/21 05:55:14;;;;;;;35.63;17.17;;;;;;;6.20;68.28;100521.97;126183;1099;104348;-82
2021/11/21 05:57:45;;;;;;;36.57;18.73;;;;;;;6.20;68.24;100511.55;126275;1099;104377;-81
2021/11/21 06:00:17;;;;;;;38.87;18.97;;;;;;;6.22;68.37;100520.36;126321;1099;104162;-82
2021/11/21 06:02:45;;;;;;;34.47;19.20;;;;;;;6.21;68.34;100526.38;126309;1099;104147;-81
2021/11/21 06:05:13;;;;;;;36.63;18.57;;;;;;;6.20;68.11;100521.97;126322;1099;104159;-82
2021/11/21 06:07:41;;;;;;;36.40;19.00;;;;;;;6.22;68.23;100523.85;126346;1099;104210;-81
2021/11/21 06:10:10;;;;;;;33.47;17.70;;;;;;;6.28;68.48;100520.69;126324;1099;104261;-83
2021/11/21 06:12:38;;;;;;;39.67;18.73;;;;;;;6.36;68.54;100516.77;126244;1099;104152;-82
2021/11/21 06:15:09;;;;;;;35.17;16.63;;;;;;;6.44;68.37;100517.17;126364;1099;104203;-82
2021/11/21 06:17:37;;;;;;;33.33;17.70;;;;;;;6.53;68.43;100509.83;126313;1099;104159;-82
2021/11/21 06:20:07;;;;;;;33.13;17.90;;;;;;;6.65;68.33;100507.86;126242;1099;104165;-81
2021/11/21 06:22:37;;;;;;;35.27;18.67;;;;;;;6.75;68.50;100506.61;126309;1099;104289;-82
2021/11/21 06:25:06;;;;;;;40.27;19.67;;;;;;;6.88;68.41;100502.91;126261;1099;104150;-82
2021/11/21 06:27:34;;;;;;;42.87;20.47;;;;;;;6.99;68.11;100496.50;126382;1099;104163;-82
2021/11/21 06:30:03;;;;;;;34.57;19.20;;;;;;;7.11;68.41;100501.45;126350;1099;104159;-82
2021/11/21 06:32:31;;;;;;;36.17;18.73;;;;;;;7.20;68.53;100503.63;126301;1099;104158;-82
2021/11/21 06:34:59;;;;;;;29.00;15.50;;;;;;;7.23;67.88;100501.17;126343;1099;104207;-82
2021/11/21 06:37:27;;;;;;;31.07;16.50;;;;;;;7.33;68.22;100498.17;126284;1099;104303;-82
2021/11/21 06:39:57;;;;;;;32.20;16.37;;;;;;;7.45;68.12;100504.80;126304;1099;104277;-81
2021/11/21 06:42:25;;;;;;;31.33;16.70;;;;;;;7.53;68.46;100480.86;126301;1099;104730;-82
2021/11/21 06:44:53;;;;;;;33.13;17.70;;;;;;;7.58;67.87;100485.42;126306;1099;104207;-82
2021/11/21 06:47:22;;;;;;;28.63;14.03;;;;;;;7.60;68.03;100486.38;126388;1099;104302;-82
2021/11/21 06:49:51;;;;;;;34.80;18.67;;;;;;;7.66;68.00;100489.28;126304;1099;104274;-82
2021/11/21 06:52:20;;;;;;;31.07;18.27;;;;;;;7.66;68.21;100478.83;126305;1099;104188;-82
2021/11/21 06:54:48;;;;;;;32.50;19.17;;;;;;;7.73;67.93;100484.41;126354;1099;104144;-82
2021/11/21 06:57:16;;;;;;;29.87;16.43;;;;;;;7.80;68.14;100477.75;126303;1099;104187;-82
2021/11/21 06:59:44;;;;;;;29.70;17.13;;;;;;;7.85;67.94;100481.49;126391;1099;104201;-82
2021/11/21 07:02:12;;;;;;;28.83;14.77;;;;;;;7.90;67.58;100479.09;126268;1097;104198;-82
2021/11/21 07:04:40;;;;;;;29.10;15.23;;;;;;;7.99;67.49;100479.48;126359;1098;104207;-82
2021/11/21 07:07:10;;;;;;;27.03;14.80;;;;;;;8.07;67.61;100474.61;126317;1099;104686;-82
2021/11/21 07:09:41;;;;;;;24.70;12.57;;;;;;;8.19;67.47;100472.55;126309;1099;104143;-82
2021/11/21 07:12:09;;;;;;;27.90;13.95;;;;;;;8.32;68.02;100471.40;126268;1099;104165;-81
2021/11/21 07:14:38;;;;;;;23.43;12.90;;;;;;;8.43;67.81;100477.06;126313;1099;104335;-83
2021/11/21 07:17:06;;;;;;;23.83;11.00;;;;;;;8.52;66.98;100476.63;126277;1099;104274;-82
2021/11/21 07:19:34;;;;;;;21.73;9.20;;;;;;;8.61;67.39;100477.02;126327;1099;104672;-82
2021/11/21 07:22:02;;;;;;;20.03;8.77;;;;;;;8.70;67.05;100471.31;126202;1099;104296;-82
2021/11/21 07:24:31;;;;;;;19.03;9.20;;;;;;;8.79;66.77;100474.31;126169;1099;104307;-83
2021/11/21 07:26:59;;;;;;;20.30;8.67;;;;;;;8.87;66.85;100459.82;126166;1099;104296;-83
2021/11/21 07:29:29;;;;;;;17.53;8.60;;;;;;;8.95;66.09;100455.80;126225;1099;104408;-83
2021/11/21 07:31:59;;;;;;;18.87;8.63;;;;;;;9.03;65.93;100460.46;126206;1099;104309;-83
2021/11/21 07:34:27;;;;;;;20.20;9.37;;;;;;;9.11;66.10;100456.42;126185;1099;104271;-84
2021/11/21 07:36:56;;;;;;;17.83;8.10;;;;;;;9.17;65.53;100454.94;126223;1099;104319;-84
2021/11/21 07:39:25;;;;;;;21.00;9.00;;;;;;;9.26;66.19;100459.67;126174;1099;104336;-83
2021/11/21 07:41:53;;;;;;;15.17;7.87;;;;;;;9.34;65.40;100463.48;126194;1099;104277;-82
2021/11/21 07:44:21;;;;;;;19.17;8.07;;;;;;;9.43;65.98;100454.23;126081;1099;104380;-81
2021/11/21 07:46:49;;;;;;;15.63;7.40;;;;;;;9.50;65.19;100458.84;125306;1099;104188;-83
2021/11/21 07:49:18;;;;;;;16.37;7.03;;;;;;;9.57;65.28;100444.25;125270;1099;104325;-82
2021/11/21 07:51:47;;;;;;;12.83;6.20;;;;;;;9.66;64.82;100450.77;125270;1102;104254;-83
2021/11/21 07:54:15;;;;;;;15.00;7.10;;;;;;;9.78;65.13;100447.70;125382;1100;105626;-82
2021/11/21 07:56:43;;;;;;;16.00;7.03;;;;;;;9.87;64.08;100441.93;126193;1099;104181;-83
2021/11/21 07:59:11;;;;;;;15.63;7.10;;;;;;;9.94;64.56;100441.34;126236;1099;104152;-82
2021/11/21 08:01:39;;;;;;;14.33;7.07;;;;;;;10.02;64.39;100444.21;126217;1099;104357;-83
2021/11/21 08:04:10;;;;;;;13.87;6.63;;;;;;;10.11;64.12;100446.30;126134;1099;104300;-83
2021/11/21 08:06:41;;;;;;;14.90;6.72;;;;;;;10.19;64.01;100445.75;126321;1099;104133;-83
2021/11/21 08:09:09;;;;;;;15.93;6.93;;;;;;;10.25;63.60;100443.34;126343;1099;104152;-83
2021/11/21 08:11:37;;;;;;;14.30;7.10;;;;;;;10.32;62.79;100444.45;126345;1099;104270;-83
2021/11/21 08:14:08;;;;;;;13.53;6.40;;;;;;;10.40;62.78;100443.02;126289;1099;104348;-85
2021/11/21 08:16:36;;;;;;;12.83;6.17;;;;;;;10.50;63.19;100445.97;126300;1097;104137;-82
2021/11/21 08:19:08;;;;;;;17.47;6.60;;;;;;;10.57;63.09;100440.10;126172;1098;104678;-83
2021/11/21 08:21:36;;;;;;;12.47;6.53;;;;;;;10.64;63.06;100430.70;126359;1099;104178;-81
2021/11/21 08:24:07;;;;;;;11.23;5.87;;;;;;;10.74;62.79;100438.94;126256;1099;104149;-82
2021/11/21 08:26:35;;;;;;;12.70;5.93;;;;;;;10.85;62.83;100436.69;126344;1099;104134;-82
2021/11/21 08:29:04;;;;;;;13.90;7.13;;;;;;;10.93;62.51;100436.94;126320;1099;104293;-82
2021/11/21 08:31:33;;;;;;;16.80;7.43;;;;;;;10.99;62.58;100434.52;126343;1098;104156;-82
2021/11/21 08:34:01;;;;;;;17.67;7.33;;;;;;;11.08;62.31;100419.06;126245;1099;104232;-81
2021/11/21 08:36:29;;;;;;;16.60;7.33;;;;;;;11.16;62.48;100424.56;126298;1099;104191;-83
2021/11/21 08:38:57;;;;;;;15.57;7.43;;;;;;;11.26;62.14;100428.37;126331;1099;104278;-82
2021/11/21 08:41:25;;;;;;;14.13;6.17;;;;;;;11.31;59.75;100419.80;126334;1099;104583;-83
2021/11/21 08:43:53;;;;;;;14.23;6.47;;;;;;;11.40;60.99;100420.92;126308;1099;104143;-83
2021/11/21 08:46:21;;;;;;;13.10;6.93;;;;;;;11.46;60.88;100411.48;126328;1099;104143;-81
2021/11/21 08:48:50;;;;;;;12.97;6.53;;;;;;;11.54;60.13;100398.58;126334;1099;104214;-85
2021/11/21 08:51:18;;;;;;;17.87;6.27;;;;;;;11.63;60.88;100395.34;126315;1099;104139;-83
2021/11/21 08:53:50;;;;;;;14.47;6.50;;;;;;;11.73;60.69;100392.13;126295;1099;104760;-83
2021/11/21 08:56:18;;;;;;;13.13;6.87;;;;;;;11.83;60.55;100382.79;126293;1099;104179;-83
2021/11/21 08:58:46;;;;;;;15.03;5.90;;;;;;;11.90;58.20;100373.33;126287;1099;104858;-82
2021/11/21 09:01:14;;;;;;;12.07;6.13;;;;;;;11.93;56.94;100366.44;126308;1099;104265;-82
2021/11/21 09:03:42;;;;;;;11.23;6.33;;;;;;;11.98;58.16;100361.31;126364;1097;104244;-82
2021/11/21 09:06:11;;;;;;;11.97;6.37;;;;;;;12.06;58.41;100351.92;126293;1099;104140;-81
2021/11/21 09:08:39;;;;;;;11.90;6.20;;;;;;;12.15;58.66;100345.99;126311;1099;104275;-83
2021/11/21 09:11:10;;;;;;;13.10;6.70;;;;;;;12.18;57.17;100340.81;126344;1099;104150;-83
2021/11/21 09:13:38;;;;;;;13.35;6.50;;;;;;;12.28;57.55;100342.85;126277;1099;104195;-83
2021/11/21 09:16:08;;;;;;;14.40;6.30;;;;;;;12.27;55.69;100335.80;126208;1099;104130;-83
2021/11/21 09:18:44;;;;;;;13.40;6.43;;;;;;;12.31;57.18;100340.30;126143;1099;104975;-82
2021/11/21 09:21:13;;;;;;;13.20;6.73;;;;;;;12.35;57.15;100328.10;126235;1099;104197;-83
2021/11/21 09:23:43;;;;;;;15.67;6.77;;;;;;;12.42;57.32;100319.53;126233;1099;104178;-83
2021/11/21 09:26:11;;;;;;;16.80;7.63;;;;;;;12.44;55.96;100315.18;126184;1099;104147;-83
2021/11/21 09:28:40;;;;;;;15.67;7.10;;;;;;;12.46;55.44;100313.47;125442;1099;104304;-84
2021/11/21 09:31:11;;;;;;;18.60;7.27;;;;;;;12.51;56.61;100306.60;126192;1099;104297;-83
2021/11/21 09:33:40;;;;;;;20.53;7.40;;;;;;;12.56;56.15;100297.06;126224;1099;104191;-82
2021/11/21 09:36:10;;;;;;;13.13;6.93;;;;;;;12.61;56.28;100294.55;126181;1099;105645;-83
2021/11/21 09:38:40;;;;;;;16.80;7.20;;;;;;;12.60;55.24;100290.12;126244;1099;104296;-82
2021/11/21 09:41:08;;;;;;;14.53;7.30;;;;;;;12.64;55.76;100284.09;126206;1099;104178;-82
2021/11/21 09:43:37;;;;;;;16.53;7.40;;;;;;;12.72;56.13;100279.89;126146;1099;104307;-82
2021/11/21 09:46:07;;;;;;;15.93;6.80;;;;;;;12.79;55.62;100274.77;125393;1099;104300;-82
2021/11/21 09:48:37;;;;;;;14.43;6.93;;;;;;;12.82;54.76;100261.67;126095;1099;104239;-83
2021/11/21 09:51:06;;;;;;;12.67;6.10;;;;;;;12.85;55.15;100267.01;126376;1099;104156;-82
2021/11/21 09:53:35;;;;;;;13.27;6.40;;;;;;;12.86;55.60;100261.78;126330;1099;104221;-83
2021/11/21 09:56:04;;;;;;;16.17;6.50;;;;;;;12.90;55.65;100265.36;126286;1099;104204;-84
2021/11/21 09:58:38;;;;;;;14.37;6.70;;;;;;;12.89;54.77;100259.21;126354;1099;104270;-82
2021/11/21 10:01:06;;;;;;;14.98;7.08;;;;;;;12.91;54.30;100241.69;126383;1099;104332;-83
2021/11/21 10:03:46;;;;;;;11.97;6.17;;;;;;;12.95;54.71;100250.57;126317;1098;101687;-84
2021/11/21 10:06:30;;;;;;;14.63;6.73;;;;;;;12.96;54.49;100244.42;126311;1098;104143;-82
2021/11/21 10:09:00;;;;;;;14.85;7.00;;;;;;;12.96;54.52;100239.16;126321;1098;104163;-84
2021/11/21 10:11:30;;;;;;;13.53;6.63;;;;;;;12.96;54.39;100239.16;126307;1098;104152;-82
2021/11/21 10:14:05;;;;;;;15.47;6.57;;;;;;;12.98;54.17;100237.47;126346;1099;104146;-83
2021/11/21 10:16:34;;;;;;;13.60;6.70;;;;;;;13.02;53.44;100222.61;126315;1099;104169;-84
2021/11/21 10:19:06;;;;;;;14.37;6.80;;;;;;;13.06;54.19;100229.73;126337;1099;104169;-83
2021/11/21 10:21:36;;;;;;;13.93;6.37;;;;;;;13.07;54.58;100218.32;126338;1099;104137;-83
2021/11/21 10:24:20;;;;;;;14.70;6.43;;;;;;;13.09;53.86;100206.97;126351;1099;104281;-82
2021/11/21 10:27:00;;;;;;;;;;;;;;;13.14;53.27;100201.80;126335;1099;104157;-83
2021/11/21 10:29:32;;;;;;;17.77;6.63;;;;;;;13.16;54.57;100186.90;126333;1099;104338;-82
2021/11/21 10:32:12;;;;;;;14.57;6.40;;;;;;;13.20;54.30;100186.11;126379;1099;104262;-82
2021/11/21 10:34:49;;;;;;;13.40;6.63;;;;;;;13.23;53.16;100170.37;126304;1099;104171;-83
2021/11/21 10:37:18;;;;;;;17.73;6.23;;;;;;;13.25;53.28;100163.38;126309;1099;104223;-83
2021/11/21 10:39:47;;;;;;;12.57;5.87;;;;;;;13.26;53.01;100159.89;126321;1099;104146;-83
2021/11/21 10:42:24;;;;;;;12.43;5.87;;;;;;;13.27;53.02;100155.50;126351;1098;104149;-82
2021/11/21 10:44:52;;;;;;;;;;;;;;;13.28;52.78;100147.62;126356;1099;104203;-82
2021/11/21 10:47:20;;;;;;;12.00;5.80;;;;;;;13.31;53.68;100146.80;126276;1099;105476;-84
2021/11/21 10:49:52;;;;;;;14.50;5.90;;;;;;;13.32;52.63;100138.02;126297;1099;104284;-82
2021/11/21 10:52:22;;;;;;;8.73;5.40;;;;;;;13.36;52.89;100133.75;126278;1099;104245;-83
2021/11/21 10:54:53;;;;;;;11.13;5.40;;;;;;;13.39;52.96;100124.14;126364;1099;104166;-82
2021/11/21 10:57:22;;;;;;;15.93;5.87;;;;;;;13.43;53.81;100130.34;126299;1099;104147;-81
2021/11/21 10:59:53;;;;;;;10.70;5.53;;;;;;;13.45;52.40;100118.10;126328;1099;104219;-82
2021/11/21 11:02:25;;;;;;;12.40;6.17;;;;;;;13.48;52.73;100115.52;126283;1099;104219;-82
2021/11/21 11:05:09;;;;;;;15.47;5.90;;;;;;;13.48;52.29;100110.25;126311;1099;104195;-83
2021/11/21 11:07:40;;;;;;;12.73;5.93;;;;;;;13.45;52.24;100100.53;126275;1099;104205;-83
2021/11/21 11:10:12;;;;;;;11.57;5.87;;;;;;;13.47;52.52;100105.83;126317;1099;104258;-82
2021/11/21 11:12:41;;;;;;;9.40;5.30;;;;;;;13.49;52.73;100104.09;126302;1098;104270;-82